Time;durP1;ratioP1;P1;durP2;ratioP2;P2;SDS_P1;SDS_P2;PMS_P1;PMS_P2;Temp;Humidity;BMP_temperature;BMP_pressure;BME280_temperature;BME280_humidity;BME280_pressure;Samples;Min_cycle;Max_cycle;Signal;HPM_P1;HPM_P2
2022/03/05 00:02:16;;;;;;;7.93;5.18;;;;;;;;;;5063379;28;20235;-17
2022/03/05 00:04:43;;;;;;;9.02;5.30;;;;;;;;;;5071231;28;20245;-17
2022/03/05 00:07:10;;;;;;;36.00;6.50;;;;;;;;;;5070215;28;20967;-17
2022/03/05 00:09:37;;;;;;;20.27;5.78;;;;;;;;;;5062027;28;20234;-17
2022/03/05 00:12:04;;;;;;;16.58;5.03;;;;;;;;;;5070002;28;20785;-17
2022/03/05 00:14:31;;;;;;;14.38;4.95;;;;;;;;;;5071385;28;21046;-17
2022/03/05 00:16:58;;;;;;;21.00;5.72;;;;;;;;;;5055133;28;20268;-17
2022/03/05 00:19:25;;;;;;;11.65;4.85;;;;;;;;;;5048937;28;20226;-17
2022/03/05 00:21:54;;;;;;;10.07;4.95;;;;;;;;;;5050032;28;20238;-17
2022/03/05 00:24:21;;;;;;;9.60;4.70;;;;;;;;;;5051120;28;20623;-17
2022/03/05 00:26:48;;;;;;;10.93;5.20;;;;;;;;;;5051253;28;20264;-17
2022/03/05 00:29:15;;;;;;;18.77;4.65;;;;;;;;;;5051041;28;20222;-17
2022/03/05 00:31:42;;;;;;;11.32;4.80;;;;;;;;;;5050744;28;20241;-17
2022/03/05 00:34:09;;;;;;;7.10;4.68;;;;;;;;;;5050431;28;21165;-17
2022/03/05 00:36:37;;;;;;;11.48;5.07;;;;;;;;;;5051031;28;20228;-17
2022/03/05 00:39:04;;;;;;;13.90;4.78;;;;;;;;;;5051277;28;20226;-17
2022/03/05 00:41:31;;;;;;;9.73;5.22;;;;;;;;;;5054810;28;20236;-17
2022/03/05 00:43:58;;;;;;;12.93;4.68;;;;;;;;;;5053715;28;20352;-17
2022/03/05 00:46:26;;;;;;;6.70;4.32;;;;;;;;;;5054361;28;20237;-17
2022/03/05 00:48:53;;;;;;;9.15;4.60;;;;;;;;;;5054300;28;20226;-17
2022/03/05 00:51:20;;;;;;;10.68;5.30;;;;;;;;;;5054522;28;20230;-17
2022/03/05 00:53:47;;;;;;;9.05;5.05;;;;;;;;;;5053650;28;20241;-17
2022/03/05 00:56:14;;;;;;;8.23;5.10;;;;;;;;;;5054166;28;20230;-17
2022/03/05 00:58:40;;;;;;;7.00;4.15;;;;;;;;;;5039742;28;20955;-17
2022/03/05 01:01:08;;;;;;;7.00;4.82;;;;;;;;;;5042689;28;20234;-17
2022/03/05 01:03:35;;;;;;;6.00;4.53;;;;;;;;;;5054167;28;20301;-17
2022/03/05 01:06:02;;;;;;;6.82;4.70;;;;;;;;;;5047867;28;20301;-17
2022/03/05 01:08:29;;;;;;;7.32;4.63;;;;;;;;;;5034522;28;20237;-17
2022/03/05 01:10:56;;;;;;;7.97;4.80;;;;;;;;;;5033841;28;20223;-17
2022/03/05 01:13:23;;;;;;;8.23;5.03;;;;;;;;;;5034115;28;20250;-17
2022/03/05 01:15:50;;;;;;;7.15;4.38;;;;;;;;;;5039818;28;20231;-17
2022/03/05 01:18:17;;;;;;;6.80;5.10;;;;;;;;;;5042697;28;20242;-17
2022/03/05 01:20:44;;;;;;;7.15;4.50;;;;;;;;;;5033715;28;20242;-17
2022/03/05 01:23:11;;;;;;;5.95;4.82;;;;;;;;;;5047780;28;20246;-17
2022/03/05 01:25:38;;;;;;;6.43;4.82;;;;;;;;;;5052295;28;20230;-17
2022/03/05 01:28:05;;;;;;;8.02;5.10;;;;;;;;;;5052706;28;20581;-17
2022/03/05 01:30:33;;;;;;;7.07;4.95;;;;;;;;;;5051953;28;20701;-17
2022/03/05 01:33:00;;;;;;;10.02;5.00;;;;;;;;;;5052444;28;20233;-17
2022/03/05 01:35:27;;;;;;;5.38;4.47;;;;;;;;;;5053506;28;20225;-16
2022/03/05 01:37:55;;;;;;;7.93;4.82;;;;;;;;;;5052937;28;20241;-17
2022/03/05 01:40:22;;;;;;;7.15;5.28;;;;;;;;;;5053534;28;20705;-17
2022/03/05 01:42:49;;;;;;;7.97;5.25;;;;;;;;;;5053547;28;20234;-17
2022/03/05 01:45:16;;;;;;;6.90;4.57;;;;;;;;;;5068355;28;20230;-17
2022/03/05 01:47:45;;;;;;;9.52;5.32;;;;;;;;;;5052614;28;20233;-17
2022/03/05 01:50:12;;;;;;;7.00;5.03;;;;;;;;;;5052647;28;20704;-17
2022/03/05 01:52:39;;;;;;;6.90;4.90;;;;;;;;;;5053326;28;20309;-17
2022/03/05 01:55:06;;;;;;;8.52;4.97;;;;;;;;;;5052533;28;20222;-17
2022/03/05 01:57:33;;;;;;;7.05;5.05;;;;;;;;;;5052571;28;20238;-17
2022/03/05 02:00:00;;;;;;;9.60;5.35;;;;;;;;;;5033084;28;20231;-17
2022/03/05 02:02:27;;;;;;;6.38;5.07;;;;;;;;;;5052092;28;20268;-17
2022/03/05 02:04:54;;;;;;;7.47;5.65;;;;;;;;;;5052798;28;20226;-17
2022/03/05 02:07:21;;;;;;;7.63;5.00;;;;;;;;;;5052440;28;20234;-17
2022/03/05 02:09:48;;;;;;;8.70;5.40;;;;;;;;;;5053029;28;20765;-17
2022/03/05 02:12:15;;;;;;;8.25;5.20;;;;;;;;;;5052330;28;20234;-17
2022/03/05 02:14:42;;;;;;;7.38;5.22;;;;;;;;;;5052690;28;20224;-17
2022/03/05 02:17:10;;;;;;;7.40;5.15;;;;;;;;;;5052034;28;20226;-17
2022/03/05 02:19:37;;;;;;;8.13;5.80;;;;;;;;;;5038408;28;20251;-17
2022/03/05 02:22:06;;;;;;;8.48;6.10;;;;;;;;;;5032528;28;20248;-17
2022/03/05 02:24:33;;;;;;;9.40;5.93;;;;;;;;;;5033241;28;20609;-17
2022/03/05 02:27:00;;;;;;;7.93;5.60;;;;;;;;;;5033141;28;20211;-17
2022/03/05 02:29:27;;;;;;;8.82;5.93;;;;;;;;;;5070542;28;20228;-17
2022/03/05 02:31:54;;;;;;;6.47;5.25;;;;;;;;;;5057316;28;20234;-17
2022/03/05 02:34:21;;;;;;;7.90;5.90;;;;;;;;;;5052830;28;20253;-17
2022/03/05 02:36:48;;;;;;;8.02;5.75;;;;;;;;;;5051849;28;20230;-17
2022/03/05 02:39:15;;;;;;;8.45;5.72;;;;;;;;;;5049506;28;20237;-17
2022/03/05 02:41:42;;;;;;;7.38;5.53;;;;;;;;;;5052480;28;20241;-17
2022/03/05 02:44:09;;;;;;;8.05;6.00;;;;;;;;;;5052467;28;20222;-17
2022/03/05 02:46:36;;;;;;;7.32;5.47;;;;;;;;;;5052308;28;20226;-17
2022/03/05 02:49:03;;;;;;;8.95;5.93;;;;;;;;;;5052348;28;20222;-17
2022/03/05 02:51:30;;;;;;;8.82;5.88;;;;;;;;;;5051854;28;20329;-17
2022/03/05 02:53:57;;;;;;;7.80;5.63;;;;;;;;;;5050811;28;20229;-17
2022/03/05 02:56:24;;;;;;;9.73;5.93;;;;;;;;;;5051935;28;20607;-17
2022/03/05 02:58:51;;;;;;;7.40;5.72;;;;;;;;;;5051096;28;22115;-17
2022/03/05 03:01:18;;;;;;;7.47;5.93;;;;;;;;;;5050166;28;20292;-17
2022/03/05 03:03:45;;;;;;;8.90;5.80;;;;;;;;;;5052072;28;20274;-17
2022/03/05 03:06:12;;;;;;;7.70;5.70;;;;;;;;;;5051766;28;20665;-17
2022/03/05 03:08:39;;;;;;;7.65;6.20;;;;;;;;;;5034467;28;20230;-17
2022/03/05 03:11:06;;;;;;;8.52;6.13;;;;;;;;;;5031778;28;20610;-17
2022/03/05 03:13:33;;;;;;;7.82;6.07;;;;;;;;;;5050028;28;20246;-17
2022/03/05 03:16:00;;;;;;;8.70;5.90;;;;;;;;;;5051724;28;20237;-17
2022/03/05 03:18:27;;;;;;;8.93;6.30;;;;;;;;;;5051890;28;20238;-17
2022/03/05 03:20:54;;;;;;;8.48;6.72;;;;;;;;;;5052031;28;20242;-17
2022/03/05 03:23:21;;;;;;;9.55;6.28;;;;;;;;;;5058114;28;20245;-17
2022/03/05 03:25:48;;;;;;;9.18;6.18;;;;;;;;;;5050948;28;20226;-17
2022/03/05 03:28:15;;;;;;;9.23;6.90;;;;;;;;;;5051680;28;20237;-17
2022/03/05 03:30:42;;;;;;;8.15;6.15;;;;;;;;;;5051727;28;20238;-17
2022/03/05 03:33:09;;;;;;;8.63;6.30;;;;;;;;;;5051576;28;20226;-17
2022/03/05 03:35:36;;;;;;;8.68;6.40;;;;;;;;;;5031925;28;20238;-17
2022/03/05 03:38:03;;;;;;;8.65;6.15;;;;;;;;;;5031724;28;20721;-17
2022/03/05 03:40:30;;;;;;;8.18;6.18;;;;;;;;;;5031985;28;20242;-17
2022/03/05 03:42:57;;;;;;;9.75;6.80;;;;;;;;;;5037555;28;20705;-17
2022/03/05 03:45:24;;;;;;;7.72;5.90;;;;;;;;;;5050952;28;20230;-17
2022/03/05 03:47:51;;;;;;;8.45;6.22;;;;;;;;;;5051477;28;20256;-17
2022/03/05 03:50:18;;;;;;;9.00;6.40;;;;;;;;;;5051004;28;20609;-17
2022/03/05 03:52:45;;;;;;;8.90;6.32;;;;;;;;;;5051105;28;20226;-17
2022/03/05 03:55:12;;;;;;;8.38;6.30;;;;;;;;;;5050829;28;20230;-17
2022/03/05 03:57:39;;;;;;;8.55;6.13;;;;;;;;;;5051364;28;21041;-17
2022/03/05 04:00:06;;;;;;;8.93;6.35;;;;;;;;;;5051329;28;20253;-17
2022/03/05 04:02:33;;;;;;;7.53;6.03;;;;;;;;;;5051339;28;20223;-17
2022/03/05 04:05:00;;;;;;;9.07;6.32;;;;;;;;;;5051530;28;20226;-17
2022/03/05 04:10:13;;;;;;;10.57;6.00;;;;;;;;;;5071381;28;20229;-17
2022/03/05 04:12:40;;;;;;;8.98;6.45;;;;;;;;;;5072070;28;20226;-17
2022/03/05 04:15:07;;;;;;;10.10;6.65;;;;;;;;;;5073906;28;20221;-17
2022/03/05 04:17:34;;;;;;;8.15;6.40;;;;;;;;;;5057675;28;20229;-17
2022/03/05 04:20:01;;;;;;;9.38;6.43;;;;;;;;;;5074797;28;20225;-17
2022/03/05 04:22:28;;;;;;;8.38;6.20;;;;;;;;;;5074299;28;20245;-17
2022/03/05 04:24:55;;;;;;;9.60;6.78;;;;;;;;;;5055789;28;20230;-17
2022/03/05 04:27:22;;;;;;;9.75;5.95;;;;;;;;;;5054686;28;20232;-17
2022/03/05 04:29:49;;;;;;;9.63;6.10;;;;;;;;;;5053927;28;20281;-17
2022/03/05 04:32:16;;;;;;;8.23;6.28;;;;;;;;;;5053919;28;20233;-17
2022/03/05 04:34:43;;;;;;;10.18;7.20;;;;;;;;;;5054510;28;20236;-17
2022/03/05 04:37:11;;;;;;;7.43;6.57;;;;;;;;;;5054433;28;20237;-17
2022/03/05 04:39:38;;;;;;;9.20;6.20;;;;;;;;;;5053161;28;21074;-17
2022/03/05 04:42:05;;;;;;;9.77;6.50;;;;;;;;;;5054366;28;20222;-17
2022/03/05 04:44:32;;;;;;;9.00;6.63;;;;;;;;;;5039382;28;20237;-17
2022/03/05 04:46:59;;;;;;;9.13;6.88;;;;;;;;;;5050035;28;20986;-17
2022/03/05 04:49:26;;;;;;;9.15;6.55;;;;;;;;;;5054169;28;20300;-17
2022/03/05 04:51:53;;;;;;;9.85;6.72;;;;;;;;;;5053585;28;20283;-17
2022/03/05 04:54:20;;;;;;;8.05;6.40;;;;;;;;;;5054232;28;20222;-17
2022/03/05 04:56:47;;;;;;;7.88;6.45;;;;;;;;;;5054147;28;20222;-17
2022/03/05 04:59:14;;;;;;;8.80;6.80;;;;;;;;;;5053885;28;20249;-17
2022/03/05 05:01:41;;;;;;;10.20;7.07;;;;;;;;;;5053320;28;20238;-17
2022/03/05 05:04:08;;;;;;;9.00;6.63;;;;;;;;;;5042595;28;20358;-17
2022/03/05 05:06:35;;;;;;;12.82;7.20;;;;;;;;;;5034173;28;21213;-17
2022/03/05 05:09:02;;;;;;;8.80;6.28;;;;;;;;;;5033880;28;20729;-17
2022/03/05 05:11:29;;;;;;;8.82;6.38;;;;;;;;;;5033836;28;20219;-17
2022/03/05 05:13:56;;;;;;;9.30;6.60;;;;;;;;;;5046940;28;20234;-17
2022/03/05 05:16:23;;;;;;;11.27;6.90;;;;;;;;;;5053913;28;20248;-17
2022/03/05 05:21:35;;;;;;;9.35;6.60;;;;;;;;;;5053466;28;20610;-17
2022/03/05 05:24:02;;;;;;;11.00;6.85;;;;;;;;;;5047336;28;20724;-17
2022/03/05 05:26:29;;;;;;;8.13;6.47;;;;;;;;;;5053541;28;20226;-17
2022/03/05 05:28:56;;;;;;;9.25;6.75;;;;;;;;;;5053115;28;20240;-17
2022/03/05 05:31:24;;;;;;;8.95;6.63;;;;;;;;;;5047544;28;20238;-17
2022/03/05 05:33:51;;;;;;;8.05;6.45;;;;;;;;;;5033634;28;20293;-17
2022/03/05 05:36:18;;;;;;;8.35;6.40;;;;;;;;;;5051391;28;20230;-17
2022/03/05 05:38:45;;;;;;;8.63;6.13;;;;;;;;;;5053332;28;20253;-17
2022/03/05 05:41:16;;;;;;;9.32;6.30;;;;;;;;;;5053087;28;20788;-17
2022/03/05 05:43:43;;;;;;;8.18;6.05;;;;;;;;;;5052167;28;20710;-17
2022/03/05 05:46:10;;;;;;;11.02;6.85;;;;;;;;;;5051382;28;20240;-17
2022/03/05 05:48:52;;;;;;;8.57;6.90;;;;;;;;;;5033409;28;20297;-17
2022/03/05 05:51:19;;;;;;;8.57;6.55;;;;;;;;;;5033191;28;20226;-17
2022/03/05 05:53:49;;;;;;;8.68;6.35;;;;;;;;;;5032812;28;20223;-17
2022/03/05 05:56:16;;;;;;;8.05;6.35;;;;;;;;;;5034149;28;20241;-17
2022/03/05 05:58:43;;;;;;;10.85;6.72;;;;;;;;;;5052960;28;20250;-16
2022/03/05 06:01:10;;;;;;;8.90;6.47;;;;;;;;;;5053169;28;20237;-17
2022/03/05 06:03:37;;;;;;;8.35;6.05;;;;;;;;;;5052351;28;21064;-17
2022/03/05 06:06:06;;;;;;;8.68;6.13;;;;;;;;;;5052913;28;20226;-17
2022/03/05 06:08:33;;;;;;;8.50;6.72;;;;;;;;;;5052461;28;20234;-17
2022/03/05 06:11:00;;;;;;;8.02;6.03;;;;;;;;;;5053223;28;20222;-17
2022/03/05 06:13:27;;;;;;;8.07;6.03;;;;;;;;;;5053091;28;20994;-17
2022/03/05 06:15:53;;;;;;;9.10;6.03;;;;;;;;;;5052841;28;20279;-17
2022/03/05 06:18:20;;;;;;;8.00;5.93;;;;;;;;;;5051639;28;20329;-17
2022/03/05 06:20:50;;;;;;;8.73;5.90;;;;;;;;;;5052591;28;20238;-17
2022/03/05 06:23:20;;;;;;;7.90;6.00;;;;;;;;;;5052418;28;20242;-17
2022/03/05 06:25:47;;;;;;;8.48;5.88;;;;;;;;;;5052831;28;20232;-17
2022/03/05 06:28:14;;;;;;;8.27;6.25;;;;;;;;;;5052918;28;20226;-17
2022/03/05 06:30:41;;;;;;;7.47;5.30;;;;;;;;;;5051792;28;20253;-17
2022/03/05 06:33:08;;;;;;;8.10;6.13;;;;;;;;;;5052369;28;20226;-17
2022/03/05 06:35:35;;;;;;;8.48;6.05;;;;;;;;;;5052258;28;20284;-17
2022/03/05 06:38:02;;;;;;;8.32;6.28;;;;;;;;;;5052742;28;20225;-17
2022/03/05 06:40:29;;;;;;;6.82;5.78;;;;;;;;;;5051916;28;20233;-17
2022/03/05 06:42:56;;;;;;;7.40;5.82;;;;;;;;;;5047605;28;20222;-17
2022/03/05 06:45:23;;;;;;;7.22;5.65;;;;;;;;;;5035299;28;20222;-17
2022/03/05 06:47:50;;;;;;;8.00;5.60;;;;;;;;;;5052445;28;20284;-17
2022/03/05 06:50:17;;;;;;;8.40;5.97;;;;;;;;;;5051884;28;20229;-17
2022/03/05 06:52:44;;;;;;;8.05;6.05;;;;;;;;;;5051784;28;20234;-17
2022/03/05 06:55:15;;;;;;;8.00;5.85;;;;;;;;;;5051137;28;20276;-17
2022/03/05 06:57:42;;;;;;;7.38;5.78;;;;;;;;;;5052269;28;20233;-17
2022/03/05 07:00:09;;;;;;;8.63;6.00;;;;;;;;;;5052154;28;20238;-17
2022/03/05 07:02:36;;;;;;;7.07;5.63;;;;;;;;;;5051597;28;20226;-17
2022/03/05 07:05:03;;;;;;;8.23;6.20;;;;;;;;;;5052146;28;20229;-17
2022/03/05 07:07:32;;;;;;;8.00;6.10;;;;;;;;;;5051850;28;20238;-17
2022/03/05 07:09:59;;;;;;;8.48;6.05;;;;;;;;;;5052469;28;20359;-17
2022/03/05 07:12:26;;;;;;;8.77;5.85;;;;;;;;;;5052301;28;20272;-17
2022/03/05 07:14:58;;;;;;;7.93;5.68;;;;;;;;;;5051380;28;20260;-17
2022/03/05 07:17:25;;;;;;;7.65;5.78;;;;;;;;;;5052074;28;20262;-17
2022/03/05 07:19:53;;;;;;;9.00;5.80;;;;;;;;;;5051706;28;20234;-17
2022/03/05 07:22:20;;;;;;;9.73;5.53;;;;;;;;;;5051592;28;20244;-17
2022/03/05 07:24:47;;;;;;;7.90;5.97;;;;;;;;;;5050600;28;20233;-16
2022/03/05 07:27:14;;;;;;;8.88;6.40;;;;;;;;;;5051855;28;20234;-17
2022/03/05 07:29:43;;;;;;;6.50;5.60;;;;;;;;;;5051707;28;20222;-17
2022/03/05 07:32:11;;;;;;;8.05;5.80;;;;;;;;;;5051520;28;20236;-17
2022/03/05 07:34:38;;;;;;;6.75;5.28;;;;;;;;;;5051563;28;20238;-17
2022/03/05 07:37:05;;;;;;;6.93;5.40;;;;;;;;;;5067117;28;20692;-17
2022/03/05 07:39:31;;;;;;;7.15;5.57;;;;;;;;;;5071652;28;20704;-17
2022/03/05 07:41:59;;;;;;;7.18;5.70;;;;;;;;;;5071741;28;21006;-17
2022/03/05 07:44:26;;;;;;;7.22;5.30;;;;;;;;;;5053166;28;20309;-17
2022/03/05 07:46:53;;;;;;;6.25;5.15;;;;;;;;;;5055151;28;20238;-17
2022/03/05 07:49:20;;;;;;;8.35;5.85;;;;;;;;;;5046813;28;20230;-17
2022/03/05 07:51:47;;;;;;;7.22;5.07;;;;;;;;;;5056443;28;20240;-17
2022/03/05 07:54:14;;;;;;;8.57;5.95;;;;;;;;;;5056033;28;20697;-17
2022/03/05 07:56:41;;;;;;;7.28;5.47;;;;;;;;;;5063005;28;20706;-17
2022/03/05 07:59:08;;;;;;;6.70;5.05;;;;;;;;;;5056181;28;20231;-17
2022/03/05 08:01:35;;;;;;;8.68;5.68;;;;;;;;;;5057877;28;20233;-17
2022/03/05 08:04:05;;;;;;;7.65;5.88;;;;;;;;;;5052222;28;20260;-17
2022/03/05 08:06:32;;;;;;;8.10;5.47;;;;;;;;;;5059451;28;20234;-17
2022/03/05 08:09:00;;;;;;;8.38;5.97;;;;;;;;;;5063315;28;20226;-17
2022/03/05 08:11:27;;;;;;;7.57;5.75;;;;;;;;;;5051093;28;20234;-17
2022/03/05 08:13:53;;;;;;;7.68;6.00;;;;;;;;;;5051224;28;20218;-17
2022/03/05 08:16:20;;;;;;;7.05;5.38;;;;;;;;;;5051354;28;20233;-17
2022/03/05 08:18:48;;;;;;;8.27;5.93;;;;;;;;;;5050930;28;20280;-17
2022/03/05 08:21:15;;;;;;;8.85;5.90;;;;;;;;;;5049859;28;20234;-16
2022/03/05 08:23:42;;;;;;;8.30;5.75;;;;;;;;;;5050077;28;20245;-17
2022/03/05 08:26:13;;;;;;;8.75;6.38;;;;;;;;;;5051241;28;20241;-17
2022/03/05 08:28:41;;;;;;;8.57;5.88;;;;;;;;;;5050935;28;20697;-17
2022/03/05 08:31:08;;;;;;;8.55;6.15;;;;;;;;;;5045508;28;20426;-17
2022/03/05 08:33:35;;;;;;;8.05;5.80;;;;;;;;;;5048848;28;20234;-17
2022/03/05 08:36:02;;;;;;;8.15;5.65;;;;;;;;;;5051009;28;20232;-17
2022/03/05 08:38:31;;;;;;;7.35;5.40;;;;;;;;;;5051025;28;20226;-17
2022/03/05 08:40:58;;;;;;;10.65;6.32;;;;;;;;;;5056596;28;20639;-17
2022/03/05 08:43:25;;;;;;;14.77;6.55;;;;;;;;;;5052559;28;20969;-17
2022/03/05 08:45:52;;;;;;;18.02;6.50;;;;;;;;;;5056158;28;20262;-17
2022/03/05 08:48:20;;;;;;;8.98;6.03;;;;;;;;;;5058523;28;20225;-17
2022/03/05 08:50:47;;;;;;;24.73;6.30;;;;;;;;;;5059323;28;20234;-17
2022/03/05 08:53:13;;;;;;;13.10;6.57;;;;;;;;;;5060521;28;20255;-17
2022/03/05 08:55:41;;;;;;;20.92;6.47;;;;;;;;;;5070821;28;20239;-17
2022/03/05 08:58:08;;;;;;;11.77;7.00;;;;;;;;;;5070858;28;20960;-17
2022/03/05 09:00:35;;;;;;;22.63;9.18;;;;;;;;;;5068706;28;20242;-17
2022/03/05 09:03:02;;;;;;;20.42;9.60;;;;;;;;;;5054570;28;20273;-17
2022/03/05 09:05:29;;;;;;;17.58;9.55;;;;;;;;;;5054308;28;20285;-17
2022/03/05 09:07:56;;;;;;;14.40;9.52;;;;;;;;;;5054524;28;20983;-17
2022/03/05 09:10:23;;;;;;;18.88;9.70;;;;;;;;;;5054420;28;20232;-17
2022/03/05 09:12:50;;;;;;;16.88;8.90;;;;;;;;;;5054609;28;20226;-17
2022/03/05 09:15:17;;;;;;;14.13;8.68;;;;;;;;;;5054256;28;20323;-17
2022/03/05 09:17:44;;;;;;;16.48;9.25;;;;;;;;;;5054297;28;20958;-17
2022/03/05 09:20:11;;;;;;;21.73;10.00;;;;;;;;;;5054376;28;20229;-17
2022/03/05 09:22:38;;;;;;;24.63;9.38;;;;;;;;;;5053801;28;20269;-17
2022/03/05 09:25:05;;;;;;;26.13;9.45;;;;;;;;;;5036930;28;20423;-17
2022/03/05 09:27:33;;;;;;;25.13;9.65;;;;;;;;;;5052712;28;20426;-17
2022/03/05 09:30:00;;;;;;;20.65;9.18;;;;;;;;;;5053504;28;20313;-17
2022/03/05 09:32:27;;;;;;;19.13;8.50;;;;;;;;;;5053395;28;20237;-17
2022/03/05 09:34:59;;;;;;;19.88;8.25;;;;;;;;;;5053066;28;20257;-17
2022/03/05 09:37:26;;;;;;;17.50;7.53;;;;;;;;;;5063271;28;20229;-17
2022/03/05 09:39:53;;;;;;;19.95;8.88;;;;;;;;;;5073422;28;20264;-17
2022/03/05 09:42:20;;;;;;;17.45;8.55;;;;;;;;;;5073701;28;20221;-17
2022/03/05 09:44:47;;;;;;;13.75;8.00;;;;;;;;;;5049212;28;20229;-17
2022/03/05 09:47:14;;;;;;;15.88;8.52;;;;;;;;;;5057280;28;20940;-17
2022/03/05 09:49:41;;;;;;;17.65;8.18;;;;;;;;;;5058347;28;20236;-17
2022/03/05 09:52:09;;;;;;;10.50;7.30;;;;;;;;;;5063915;28;20240;-17
2022/03/05 09:54:35;;;;;;;14.50;8.63;;;;;;;;;;5053545;28;20239;-17
2022/03/05 09:57:02;;;;;;;15.10;8.23;;;;;;;;;;5060840;28;20230;-17
2022/03/05 09:59:29;;;;;;;20.63;8.02;;;;;;;;;;5052987;28;20691;-17
2022/03/05 10:01:57;;;;;;;19.40;7.30;;;;;;;;;;5055845;28;20364;-17
2022/03/05 10:04:24;;;;;;;15.18;7.70;;;;;;;;;;5057068;28;20234;-17
2022/03/05 10:06:51;;;;;;;12.48;7.68;;;;;;;;;;5053427;28;20227;-17
2022/03/05 10:09:18;;;;;;;11.52;7.82;;;;;;;;;;5043966;28;20436;-17
2022/03/05 10:11:45;;;;;;;14.35;8.32;;;;;;;;;;5051479;28;20415;-17
2022/03/05 10:14:12;;;;;;;12.68;7.65;;;;;;;;;;5052902;28;20226;-17
2022/03/05 10:16:39;;;;;;;18.60;8.18;;;;;;;;;;5053301;28;20228;-17
2022/03/05 10:19:06;;;;;;;14.70;7.93;;;;;;;;;;5052610;28;20257;-17
2022/03/05 10:21:33;;;;;;;25.10;7.80;;;;;;;;;;5051682;28;20238;-17
2022/03/05 10:24:00;;;;;;;15.18;7.70;;;;;;;;;;5052810;28;20630;-17
2022/03/05 10:26:47;;;;;;;13.75;7.38;;;;;;;;;;5053343;28;20230;-17
2022/03/05 10:29:14;;;;;;;13.25;7.82;;;;;;;;;;5056498;28;20241;-17
2022/03/05 10:31:41;;;;;;;14.20;7.40;;;;;;;;;;5058846;28;20260;-17
2022/03/05 10:34:13;;;;;;;10.77;7.10;;;;;;;;;;5051379;28;20241;-17
2022/03/05 10:36:40;;;;;;;10.85;7.20;;;;;;;;;;5050418;28;20237;-17
2022/03/05 10:39:09;;;;;;;11.35;7.18;;;;;;;;;;5033326;28;20757;-17
2022/03/05 10:41:36;;;;;;;11.98;7.88;;;;;;;;;;5032820;28;20682;-17
2022/03/05 10:44:04;;;;;;;12.52;8.10;;;;;;;;;;5048840;28;20325;-17
2022/03/05 10:46:31;;;;;;;15.05;8.30;;;;;;;;;;5053147;28;20236;-17
2022/03/05 10:48:58;;;;;;;10.20;7.57;;;;;;;;;;5052507;28;20243;-17
2022/03/05 10:51:25;;;;;;;11.88;7.95;;;;;;;;;;5052666;28;20230;-17
2022/03/05 10:53:52;;;;;;;12.25;8.35;;;;;;;;;;5058389;28;20237;-17
2022/03/05 10:56:19;;;;;;;15.32;9.07;;;;;;;;;;5069080;28;20221;-17
2022/03/05 10:58:46;;;;;;;13.40;8.52;;;;;;;;;;5038686;28;20234;-17
2022/03/05 11:01:13;;;;;;;15.35;8.23;;;;;;;;;;5051459;28;20238;-17
2022/03/05 11:03:43;;;;;;;13.35;8.60;;;;;;;;;;5051855;28;20771;-17
2022/03/05 11:06:10;;;;;;;16.27;9.07;;;;;;;;;;5052429;28;20230;-17
2022/03/05 11:08:37;;;;;;;12.18;8.52;;;;;;;;;;5052806;28;20230;-17
2022/03/05 11:11:04;;;;;;;25.00;11.90;;;;;;;;;;5052705;28;20226;-17
2022/03/05 11:13:31;;;;;;;18.92;10.90;;;;;;;;;;5052255;28;20238;-17
2022/03/05 11:15:59;;;;;;;18.83;11.63;;;;;;;;;;5052397;28;20256;-17
2022/03/05 11:18:26;;;;;;;26.23;11.35;;;;;;;;;;5047621;28;20230;-17
2022/03/05 11:20:53;;;;;;;18.88;10.55;;;;;;;;;;5070947;28;20242;-17
2022/03/05 11:23:20;;;;;;;20.00;10.77;;;;;;;;;;5070075;28;20460;-23
2022/03/05 11:25:47;;;;;;;16.85;10.40;;;;;;;;;;5072311;28;20218;-24
2022/03/05 11:28:14;;;;;;;17.10;9.73;;;;;;;;;;5071129;28;20226;-23
2022/03/05 11:30:41;;;;;;;14.80;9.10;;;;;;;;;;5067519;28;20237;-23
2022/03/05 11:33:08;;;;;;;18.37;11.20;;;;;;;;;;5050760;28;20569;-22
2022/03/05 11:35:42;;;;;;;16.42;10.60;;;;;;;;;;5052378;28;20457;-23
2022/03/05 11:38:09;;;;;;;18.63;10.70;;;;;;;;;;5055670;28;20435;-23
2022/03/05 11:40:36;;;;;;;17.75;9.80;;;;;;;;;;5033627;28;21253;-20
2022/03/05 11:43:03;;;;;;;16.23;9.57;;;;;;;;;;5032302;28;20239;-20
2022/03/05 11:45:32;;;;;;;21.45;10.60;;;;;;;;;;5035388;28;20430;-21
2022/03/05 11:47:59;;;;;;;19.05;9.82;;;;;;;;;;5052166;28;20230;-21
2022/03/05 11:50:28;;;;;;;17.00;10.23;;;;;;;;;;5051517;28;20423;-20
2022/03/05 11:52:55;;;;;;;18.55;10.15;;;;;;;;;;5051795;28;20515;-20
2022/03/05 11:55:24;;;;;;;22.25;9.82;;;;;;;;;;5060042;28;20222;-20
2022/03/05 11:57:51;;;;;;;19.27;9.82;;;;;;;;;;5045740;28;20288;-21
2022/03/05 12:00:18;;;;;;;23.13;9.77;;;;;;;;;;5048302;28;20259;-21
2022/03/05 12:02:50;;;;;;;19.17;10.52;;;;;;;;;;5050426;28;20905;-21
2022/03/05 12:05:17;;;;;;;16.70;10.60;;;;;;;;;;5052058;28;20253;-21
2022/03/05 12:07:44;;;;;;;18.65;9.75;;;;;;;;;;5051635;28;20727;-20
2022/03/05 12:10:12;;;;;;;20.45;10.70;;;;;;;;;;5036950;28;20330;-20
2022/03/05 12:12:39;;;;;;;20.88;9.90;;;;;;;;;;5054054;28;20229;-21
2022/03/05 12:15:06;;;;;;;23.98;10.80;;;;;;;;;;5062933;28;20316;-20
2022/03/05 12:17:33;;;;;;;14.63;9.88;;;;;;;;;;5047767;28;20226;-20
2022/03/05 12:20:00;;;;;;;16.58;10.98;;;;;;;;;;5031452;28;20273;-21
2022/03/05 12:22:27;;;;;;;18.45;10.43;;;;;;;;;;5042841;28;20245;-21
2022/03/05 12:24:54;;;;;;;16.02;9.50;;;;;;;;;;5050976;28;20330;-21
2022/03/05 12:27:21;;;;;;;18.90;10.88;;;;;;;;;;5050899;28;20426;-21
2022/03/05 12:29:48;;;;;;;18.17;10.98;;;;;;;;;;5051184;28;20407;-21
2022/03/05 12:32:15;;;;;;;25.75;10.20;;;;;;;;;;5051109;28;20240;-21
2022/03/05 12:34:42;;;;;;;15.27;10.02;;;;;;;;;;5034052;28;20258;-22
2022/03/05 12:37:09;;;;;;;20.40;11.18;;;;;;;;;;5035687;28;20211;-21
2022/03/05 12:39:36;;;;;;;16.95;10.50;;;;;;;;;;5035352;28;20817;-21
2022/03/05 12:42:04;;;;;;;16.23;9.70;;;;;;;;;;5035521;28;20694;-21
2022/03/05 12:44:31;;;;;;;16.23;9.77;;;;;;;;;;5046713;28;20229;-21
2022/03/05 12:46:58;;;;;;;19.98;9.90;;;;;;;;;;5055471;28;20373;-21
2022/03/05 12:49:25;;;;;;;12.13;8.45;;;;;;;;;;5055260;28;20226;-21
2022/03/05 12:51:52;;;;;;;26.60;9.40;;;;;;;;;;5054221;28;20729;-21
2022/03/05 12:54:19;;;;;;;16.17;10.00;;;;;;;;;;5037390;28;20257;-21
2022/03/05 12:56:46;;;;;;;16.05;10.43;;;;;;;;;;5054252;28;20234;-23
2022/03/05 12:59:13;;;;;;;14.73;9.82;;;;;;;;;;5053292;28;20242;-22
2022/03/05 13:01:40;;;;;;;14.98;9.27;;;;;;;;;;5054396;28;20739;-23
2022/03/05 13:04:07;;;;;;;12.68;9.43;;;;;;;;;;5054272;28;20229;-22
2022/03/05 13:06:34;;;;;;;12.73;9.20;;;;;;;;;;5053867;28;20337;-22
2022/03/05 13:09:01;;;;;;;15.23;9.02;;;;;;;;;;5054518;28;20222;-22
2022/03/05 13:11:49;;;;;;;14.23;8.75;;;;;;;;;;5054727;28;20234;-22
2022/03/05 13:14:16;;;;;;;12.85;8.63;;;;;;;;;;5053804;28;20317;-22
2022/03/05 13:16:43;;;;;;;12.90;8.85;;;;;;;;;;5048747;28;20707;-22
2022/03/05 13:19:10;;;;;;;14.45;9.45;;;;;;;;;;5034372;28;20254;-22
2022/03/05 13:21:37;;;;;;;13.70;8.98;;;;;;;;;;5033827;28;20249;-23
2022/03/05 13:24:04;;;;;;;11.98;8.57;;;;;;;;;;5034088;28;20231;-22
2022/03/05 13:26:31;;;;;;;13.73;8.23;;;;;;;;;;5034298;28;20792;-22
2022/03/05 13:28:58;;;;;;;11.43;8.02;;;;;;;;;;5064627;28;20230;-22
2022/03/05 13:31:29;;;;;;;10.63;7.88;;;;;;;;;;5062012;28;20242;-22
2022/03/05 13:33:56;;;;;;;12.57;8.57;;;;;;;;;;5053170;28;20227;-22
2022/03/05 13:36:23;;;;;;;13.20;8.40;;;;;;;;;;5054092;28;20245;-22
2022/03/05 13:38:50;;;;;;;11.95;8.50;;;;;;;;;;5039706;28;20702;-22
2022/03/05 13:41:17;;;;;;;10.68;8.15;;;;;;;;;;5033520;28;20235;-23
2022/03/05 13:43:44;;;;;;;13.60;8.20;;;;;;;;;;5033890;28;20226;-22
2022/03/05 13:46:11;;;;;;;12.25;8.48;;;;;;;;;;5042328;28;20233;-22
2022/03/05 13:48:38;;;;;;;12.15;8.23;;;;;;;;;;5052898;28;20230;-22
2022/03/05 13:51:09;;;;;;;11.70;8.55;;;;;;;;;;5053656;28;20234;-22
2022/03/05 13:53:36;;;;;;;11.80;8.52;;;;;;;;;;5041236;28;20233;-23
2022/03/05 13:56:03;;;;;;;10.55;7.70;;;;;;;;;;5033624;28;20230;-23
2022/03/05 13:58:31;;;;;;;12.50;8.75;;;;;;;;;;5033838;28;20219;-22
2022/03/05 14:00:58;;;;;;;9.90;8.05;;;;;;;;;;5048584;28;20647;-22
2022/03/05 14:03:25;;;;;;;10.27;7.90;;;;;;;;;;5053413;28;20230;-23
2022/03/05 14:05:52;;;;;;;10.38;7.45;;;;;;;;;;5052872;28;20226;-22
2022/03/05 14:08:19;;;;;;;10.73;8.23;;;;;;;;;;5053333;28;20287;-22
2022/03/05 14:10:46;;;;;;;10.43;8.38;;;;;;;;;;5052770;28;20236;-22
2022/03/05 14:13:13;;;;;;;9.90;7.63;;;;;;;;;;5052795;28;20782;-22
2022/03/05 14:15:40;;;;;;;10.85;7.72;;;;;;;;;;5052999;28;20230;-22
2022/03/05 14:18:07;;;;;;;10.68;8.07;;;;;;;;;;5053439;28;20321;-22
2022/03/05 14:20:34;;;;;;;11.65;8.75;;;;;;;;;;5053298;28;20472;-22
2022/03/05 14:23:04;;;;;;;13.63;9.45;;;;;;;;;;5052443;28;20817;-22
2022/03/05 14:25:34;;;;;;;14.32;9.40;;;;;;;;;;5060619;28;20229;-22
2022/03/05 14:28:01;;;;;;;15.55;10.05;;;;;;;;;;5067731;28;20243;-22
2022/03/05 14:30:28;;;;;;;16.23;10.02;;;;;;;;;;5052952;28;20245;-22
2022/03/05 14:32:55;;;;;;;13.38;9.57;;;;;;;;;;5052762;28;20254;-23
2022/03/05 14:35:22;;;;;;;14.82;9.20;;;;;;;;;;5055896;28;20236;-22
2022/03/05 14:37:49;;;;;;;15.32;9.57;;;;;;;;;;5054231;28;20272;-23
2022/03/05 14:40:16;;;;;;;16.27;9.30;;;;;;;;;;5044447;28;20241;-22
2022/03/05 14:42:43;;;;;;;11.80;9.07;;;;;;;;;;5045071;28;20235;-22